sensor_id;sensor_type;location;lat;lon;timestamp;P1;durP1;ratioP1;P2;durP2;ratioP2
9940;SDS011;5009;50.656;7.188;2023-02-01T05:01:09;16.27;;;6.50;;
9940;SDS011;5009;50.656;7.188;2023-02-01T05:03:35;17.23;;;6.47;;
9940;SDS011;5009;50.656;7.188;2023-02-01T05:06:00;15.37;;;5.80;;
9940;SDS011;5009;50.656;7.188;2023-02-01T05:08:28;19.27;;;6.03;;
9940;SDS011;5009;50.656;7.188;2023-02-01T05:10:54;16.20;;;6.10;;
9940;SDS011;5009;50.656;7.188;2023-02-01T05:13:20;14.47;;;5.43;;
9940;SDS011;5009;50.656;7.188;2023-02-01T05:16:04;20.73;;;6.50;;
9940;SDS011;5009;50.656;7.188;2023-02-01T05:18:30;14.00;;;5.43;;
9940;SDS011;5009;50.656;7.188;2023-02-01T05:20:55;17.13;;;5.90;;
9940;SDS011;5009;50.656;7.188;2023-02-01T05:23:21;17.03;;;6.20;;
9940;SDS011;5009;50.656;7.188;2023-02-01T05:25:46;11.70;;;5.23;;
9940;SDS011;5009;50.656;7.188;2023-02-01T05:28:12;16.17;;;5.97;;
9940;SDS011;5009;50.656;7.188;2023-02-01T05:30:37;18.07;;;5.90;;
9940;SDS011;5009;50.656;7.188;2023-02-01T05:33:03;13.60;;;5.23;;
9940;SDS011;5009;50.656;7.188;2023-02-01T05:35:29;13.43;;;5.10;;
9940;SDS011;5009;50.656;7.188;2023-02-01T05:37:54;12.17;;;4.97;;
9940;SDS011;5009;50.656;7.188;2023-02-01T05:40:20;12.57;;;4.87;;
9940;SDS011;5009;50.656;7.188;2023-02-01T05:42:46;13.10;;;4.90;;
9940;SDS011;5009;50.656;7.188;2023-02-01T05:45:11;19.13;;;6.43;;
9940;SDS011;5009;50.656;7.188;2023-02-01T05:47:37;16.73;;;5.07;;
9940;SDS011;5009;50.656;7.188;2023-02-01T05:50:03;21.93;;;5.60;;
9940;SDS011;5009;50.656;7.188;2023-02-01T05:52:30;12.20;;;4.80;;
9940;SDS011;5009;50.656;7.188;2023-02-01T05:54:55;15.23;;;5.20;;
9940;SDS011;5009;50.656;7.188;2023-02-01T05:57:21;15.67;;;4.77;;
9940;SDS011;5009;50.656;7.188;2023-02-01T05:59:46;14.57;;;4.87;;
9940;SDS011;5009;50.656;7.188;2023-02-01T06:02:13;10.80;;;4.67;;
9940;SDS011;5009;50.656;7.188;2023-02-01T06:04:40;14.30;;;5.03;;
9940;SDS011;5009;50.656;7.188;2023-02-01T06:07:06;14.63;;;4.83;;
9940;SDS011;5009;50.656;7.188;2023-02-01T06:09:33;11.33;;;3.63;;
9940;SDS011;5009;50.656;7.188;2023-02-01T06:11:59;16.93;;;4.90;;
9940;SDS011;5009;50.656;7.188;2023-02-01T06:14:26;19.20;;;4.87;;
9940;SDS011;5009;50.656;7.188;2023-02-01T06:16:52;16.73;;;4.67;;
9940;SDS011;5009;50.656;7.188;2023-02-01T06:19:18;12.17;;;4.70;;
9940;SDS011;5009;50.656;7.188;2023-02-01T06:21:44;16.13;;;4.40;;
9940;SDS011;5009;50.656;7.188;2023-02-01T06:24:09;11.40;;;4.27;;
9940;SDS011;5009;50.656;7.188;2023-02-01T06:26:35;13.53;;;4.30;;
9940;SDS011;5009;50.656;7.188;2023-02-01T06:29:01;10.97;;;4.10;;
9940;SDS011;5009;50.656;7.188;2023-02-01T06:31:26;17.73;;;4.17;;
9940;SDS011;5009;50.656;7.188;2023-02-01T06:33:52;13.67;;;4.73;;
9940;SDS011;5009;50.656;7.188;2023-02-01T06:36:18;9.53;;;4.50;;
9940;SDS011;5009;50.656;7.188;2023-02-01T06:38:46;11.40;;;4.50;;
9940;SDS011;5009;50.656;7.188;2023-02-01T06:41:12;12.80;;;4.23;;
9940;SDS011;5009;50.656;7.188;2023-02-01T06:43:38;14.87;;;4.50;;
9940;SDS011;5009;50.656;7.188;2023-02-01T06:46:05;14.93;;;4.60;;
9940;SDS011;5009;50.656;7.188;2023-02-01T06:48:33;17.20;;;5.17;;
9940;SDS011;5009;50.656;7.188;2023-02-01T06:50:59;15.00;;;4.73;;
9940;SDS011;5009;50.656;7.188;2023-02-01T06:53:25;11.63;;;4.20;;
9940;SDS011;5009;50.656;7.188;2023-02-01T06:55:51;15.50;;;4.60;;
9940;SDS011;5009;50.656;7.188;2023-02-01T06:58:18;10.97;;;4.60;;
9940;SDS011;5009;50.656;7.188;2023-02-01T07:00:43;14.87;;;5.33;;
9940;SDS011;5009;50.656;7.188;2023-02-01T07:03:09;18.17;;;4.77;;
9940;SDS011;5009;50.656;7.188;2023-02-01T07:05:34;11.43;;;5.13;;
9940;SDS011;5009;50.656;7.188;2023-02-01T07:08:00;12.50;;;3.93;;
9940;SDS011;5009;50.656;7.188;2023-02-01T07:10:25;9.50;;;4.13;;
9940;SDS011;5009;50.656;7.188;2023-02-01T07:12:51;13.13;;;4.33;;
9940;SDS011;5009;50.656;7.188;2023-02-01T07:15:16;15.03;;;4.73;;
9940;SDS011;5009;50.656;7.188;2023-02-01T07:17:42;11.33;;;4.77;;
9940;SDS011;5009;50.656;7.188;2023-02-01T07:20:09;12.97;;;4.73;;
9940;SDS011;5009;50.656;7.188;2023-02-01T07:22:35;11.37;;;4.80;;
9940;SDS011;5009;50.656;7.188;2023-02-01T07:25:01;17.97;;;5.10;;
9940;SDS011;5009;50.656;7.188;2023-02-01T07:27:27;9.83;;;4.83;;
9940;SDS011;5009;50.656;7.188;2023-02-01T07:29:52;13.27;;;4.90;;
9940;SDS011;5009;50.656;7.188;2023-02-01T07:32:20;12.47;;;4.70;;
9940;SDS011;5009;50.656;7.188;2023-02-01T07:34:46;17.80;;;5.70;;
9940;SDS011;5009;50.656;7.188;2023-02-01T07:37:11;10.60;;;5.10;;
9940;SDS011;5009;50.656;7.188;2023-02-01T07:39:37;14.50;;;5.03;;
9940;SDS011;5009;50.656;7.188;2023-02-01T07:42:02;13.50;;;4.90;;
9940;SDS011;5009;50.656;7.188;2023-02-01T07:44:28;16.07;;;5.30;;
9940;SDS011;5009;50.656;7.188;2023-02-01T07:46:53;14.67;;;5.23;;
9940;SDS011;5009;50.656;7.188;2023-02-01T07:49:19;11.90;;;4.93;;
9940;SDS011;5009;50.656;7.188;2023-02-01T07:51:44;15.47;;;5.33;;
9940;SDS011;5009;50.656;7.188;2023-02-01T07:54:10;16.90;;;5.10;;
9940;SDS011;5009;50.656;7.188;2023-02-01T07:56:35;15.37;;;4.80;;
9940;SDS011;5009;50.656;7.188;2023-02-01T07:59:01;20.33;;;6.50;;
9940;SDS011;5009;50.656;7.188;2023-02-01T08:01:27;16.23;;;5.57;;
9940;SDS011;5009;50.656;7.188;2023-02-01T08:03:54;15.73;;;5.33;;
9940;SDS011;5009;50.656;7.188;2023-02-01T08:06:22;13.40;;;4.80;;
9940;SDS011;5009;50.656;7.188;2023-02-01T08:08:49;13.40;;;5.53;;
9940;SDS011;5009;50.656;7.188;2023-02-01T08:11:15;16.93;;;5.07;;
9940;SDS011;5009;50.656;7.188;2023-02-01T08:13:41;14.47;;;5.30;;
9940;SDS011;5009;50.656;7.188;2023-02-01T08:16:08;13.27;;;4.90;;
9940;SDS011;5009;50.656;7.188;2023-02-01T08:18:36;15.50;;;4.50;;
9940;SDS011;5009;50.656;7.188;2023-02-01T08:23:39;15.97;;;4.73;;
9940;SDS011;5009;50.656;7.188;2023-02-01T08:28:35;15.47;;;4.93;;
9940;SDS011;5009;50.656;7.188;2023-02-01T08:31:05;17.07;;;5.50;;
9940;SDS011;5009;50.656;7.188;2023-02-01T08:33:33;13.40;;;5.50;;
9940;SDS011;5009;50.656;7.188;2023-02-01T08:36:00;17.23;;;5.30;;
9940;SDS011;5009;50.656;7.188;2023-02-01T08:38:27;12.90;;;5.03;;
9940;SDS011;5009;50.656;7.188;2023-02-01T08:40:52;16.40;;;5.47;;
9940;SDS011;5009;50.656;7.188;2023-02-01T08:43:18;15.73;;;5.60;;
9940;SDS011;5009;50.656;7.188;2023-02-01T08:45:44;14.80;;;5.10;;
9940;SDS011;5009;50.656;7.188;2023-02-01T08:48:09;19.30;;;5.80;;
9940;SDS011;5009;50.656;7.188;2023-02-01T08:50:35;13.33;;;4.80;;
9940;SDS011;5009;50.656;7.188;2023-02-01T08:53:00;19.20;;;5.03;;
9940;SDS011;5009;50.656;7.188;2023-02-01T08:55:26;15.53;;;5.27;;
9940;SDS011;5009;50.656;7.188;2023-02-01T08:57:52;11.73;;;5.10;;
9940;SDS011;5009;50.656;7.188;2023-02-01T09:00:18;15.17;;;4.63;;
9940;SDS011;5009;50.656;7.188;2023-02-01T09:02:44;16.07;;;6.00;;
9940;SDS011;5009;50.656;7.188;2023-02-01T09:05:10;17.33;;;5.60;;
9940;SDS011;5009;50.656;7.188;2023-02-01T09:07:36;15.97;;;5.33;;
9940;SDS011;5009;50.656;7.188;2023-02-01T09:10:02;16.53;;;5.27;;
9940;SDS011;5009;50.656;7.188;2023-02-01T09:12:30;17.10;;;4.77;;
9940;SDS011;5009;50.656;7.188;2023-02-01T09:14:56;14.30;;;5.03;;
9940;SDS011;5009;50.656;7.188;2023-02-01T09:17:24;12.23;;;4.53;;
9940;SDS011;5009;50.656;7.188;2023-02-01T09:19:51;12.17;;;4.47;;
9940;SDS011;5009;50.656;7.188;2023-02-01T09:22:16;14.53;;;4.80;;
9940;SDS011;5009;50.656;7.188;2023-02-01T09:24:42;12.43;;;4.93;;
9940;SDS011;5009;50.656;7.188;2023-02-01T09:27:08;16.17;;;4.50;;
9940;SDS011;5009;50.656;7.188;2023-02-01T09:29:33;11.40;;;4.80;;
9940;SDS011;5009;50.656;7.188;2023-02-01T09:31:59;12.27;;;4.77;;
9940;SDS011;5009;50.656;7.188;2023-02-01T09:34:25;13.37;;;4.70;;
9940;SDS011;5009;50.656;7.188;2023-02-01T09:36:50;13.33;;;4.33;;
9940;SDS011;5009;50.656;7.188;2023-02-01T09:39:16;15.43;;;4.93;;
9940;SDS011;5009;50.656;7.188;2023-02-01T09:41:48;13.10;;;4.17;;
9940;SDS011;5009;50.656;7.188;2023-02-01T09:47:23;16.83;;;5.93;;
9940;SDS011;5009;50.656;7.188;2023-02-01T09:49:55;14.90;;;4.87;;
9940;SDS011;5009;50.656;7.188;2023-02-01T09:52:25;8.93;;;4.13;;
9940;SDS011;5009;50.656;7.188;2023-02-01T09:55:00;16.47;;;4.60;;
9940;SDS011;5009;50.656;7.188;2023-02-01T09:57:44;16.37;;;4.97;;
9940;SDS011;5009;50.656;7.188;2023-02-01T10:00:29;13.83;;;4.50;;
9940;SDS011;5009;50.656;7.188;2023-02-01T10:02:58;14.30;;;4.50;;
9940;SDS011;5009;50.656;7.188;2023-02-01T10:05:36;14.10;;;4.67;;
9940;SDS011;5009;50.656;7.188;2023-02-01T10:08:13;16.67;;;4.60;;
9940;SDS011;5009;50.656;7.188;2023-02-01T10:10:52;13.70;;;4.60;;
9940;SDS011;5009;50.656;7.188;2023-02-01T10:24:28;14.53;;;4.40;;
9940;SDS011;5009;50.656;7.188;2023-02-01T10:27:02;9.83;;;4.40;;
9940;SDS011;5009;50.656;7.188;2023-02-01T10:29:36;13.97;;;4.70;;
9940;SDS011;5009;50.656;7.188;2023-02-01T10:32:09;13.20;;;4.60;;
9940;SDS011;5009;50.656;7.188;2023-02-01T10:34:38;13.33;;;4.67;;
9940;SDS011;5009;50.656;7.188;2023-02-01T10:37:14;11.97;;;4.40;;
9940;SDS011;5009;50.656;7.188;2023-02-01T10:39:48;12.33;;;4.03;;
9940;SDS011;5009;50.656;7.188;2023-02-01T10:42:17;15.70;;;4.63;;
9940;SDS011;5009;50.656;7.188;2023-02-01T10:44:45;16.37;;;4.73;;
9940;SDS011;5009;50.656;7.188;2023-02-01T10:47:13;8.87;;;3.80;;
9940;SDS011;5009;50.656;7.188;2023-02-01T10:52:30;13.33;;;4.37;;
9940;SDS011;5009;50.656;7.188;2023-02-01T10:58:01;14.80;;;4.40;;
9940;SDS011;5009;50.656;7.188;2023-02-01T11:00:42;16.50;;;4.37;;
9940;SDS011;5009;50.656;7.188;2023-02-01T11:03:20;14.33;;;4.90;;
9940;SDS011;5009;50.656;7.188;2023-02-01T11:05:49;10.70;;;4.10;;
9940;SDS011;5009;50.656;7.188;2023-02-01T11:08:15;11.10;;;4.43;;
9940;SDS011;5009;50.656;7.188;2023-02-01T11:10:42;12.60;;;4.20;;
9940;SDS011;5009;50.656;7.188;2023-02-01T11:13:12;11.27;;;4.27;;
9940;SDS011;5009;50.656;7.188;2023-02-01T11:15:43;13.80;;;4.47;;
9940;SDS011;5009;50.656;7.188;2023-02-01T11:18:17;11.37;;;4.23;;
9940;SDS011;5009;50.656;7.188;2023-02-01T11:20:44;10.00;;;4.17;;
9940;SDS011;5009;50.656;7.188;2023-02-01T11:23:15;10.10;;;4.00;;
9940;SDS011;5009;50.656;7.188;2023-02-01T11:25:49;13.93;;;4.07;;
9940;SDS011;5009;50.656;7.188;2023-02-01T11:28:21;11.50;;;4.03;;
9940;SDS011;5009;50.656;7.188;2023-02-01T11:30:51;10.90;;;4.07;;
9940;SDS011;5009;50.656;7.188;2023-02-01T11:33:20;12.97;;;4.30;;
9940;SDS011;5009;50.656;7.188;2023-02-01T11:35:50;14.13;;;3.93;;
9940;SDS011;5009;50.656;7.188;2023-02-01T11:38:20;15.53;;;4.20;;
9940;SDS011;5009;50.656;7.188;2023-02-01T11:40:51;8.90;;;4.27;;
9940;SDS011;5009;50.656;7.188;2023-02-01T11:45:59;12.33;;;4.70;;
9940;SDS011;5009;50.656;7.188;2023-02-01T11:48:27;12.60;;;4.13;;
9940;SDS011;5009;50.656;7.188;2023-02-01T11:53:39;14.67;;;4.90;;
9940;SDS011;5009;50.656;7.188;2023-02-01T11:56:30;9.63;;;4.23;;
9940;SDS011;5009;50.656;7.188;2023-02-01T12:06:57;9.27;;;3.87;;
9940;SDS011;5009;50.656;7.188;2023-02-01T12:09:58;12.60;;;4.20;;
9940;SDS011;5009;50.656;7.188;2023-02-01T12:21:06;9.67;;;3.53;;
9940;SDS011;5009;50.656;7.188;2023-02-01T12:26:55;10.57;;;4.33;;
9940;SDS011;5009;50.656;7.188;2023-02-01T12:29:40;12.00;;;4.17;;
9940;SDS011;5009;50.656;7.188;2023-02-01T12:32:19;9.83;;;3.83;;
9940;SDS011;5009;50.656;7.188;2023-02-01T12:38:16;13.27;;;3.73;;
9940;SDS011;5009;50.656;7.188;2023-02-01T12:43:56;10.93;;;3.63;;
9940;SDS011;5009;50.656;7.188;2023-02-01T12:46:35;12.30;;;4.37;;
9940;SDS011;5009;50.656;7.188;2023-02-01T12:49:11;9.60;;;3.53;;
9940;SDS011;5009;50.656;7.188;2023-02-01T12:51:45;10.23;;;4.00;;
9940;SDS011;5009;50.656;7.188;2023-02-01T12:56:49;10.00;;;3.37;;
9940;SDS011;5009;50.656;7.188;2023-02-01T13:02:16;13.13;;;3.90;;
9940;SDS011;5009;50.656;7.188;2023-02-01T13:05:03;12.47;;;3.93;;
9940;SDS011;5009;50.656;7.188;2023-02-01T13:13:11;12.50;;;4.10;;
9940;SDS011;5009;50.656;7.188;2023-02-01T13:15:57;13.97;;;4.67;;
9940;SDS011;5009;50.656;7.188;2023-02-01T13:18:34;7.43;;;3.47;;
9940;SDS011;5009;50.656;7.188;2023-02-01T13:21:06;11.80;;;3.93;;
9940;SDS011;5009;50.656;7.188;2023-02-01T13:23:38;9.57;;;3.43;;
9940;SDS011;5009;50.656;7.188;2023-02-01T13:26:05;11.87;;;3.53;;
9940;SDS011;5009;50.656;7.188;2023-02-01T13:43:11;11.00;;;3.20;;
9940;SDS011;5009;50.656;7.188;2023-02-01T13:45:25;11.43;;;4.00;;
9940;SDS011;5009;50.656;7.188;2023-02-01T13:47:54;6.13;;;3.17;;
9940;SDS011;5009;50.656;7.188;2023-02-01T13:50:35;15.83;;;4.10;;
9940;SDS011;5009;50.656;7.188;2023-02-01T13:55:35;11.47;;;3.77;;
9940;SDS011;5009;50.656;7.188;2023-02-01T13:58:19;13.50;;;3.37;;
9940;SDS011;5009;50.656;7.188;2023-02-01T14:05:11;10.80;;;3.47;;
9940;SDS011;5009;50.656;7.188;2023-02-01T14:13:33;11.77;;;3.53;;
9940;SDS011;5009;50.656;7.188;2023-02-01T14:28:52;10.20;;;3.10;;
9940;SDS011;5009;50.656;7.188;2023-02-01T14:31:31;7.57;;;3.53;;
9940;SDS011;5009;50.656;7.188;2023-02-01T14:34:02;14.00;;;3.80;;
9940;SDS011;5009;50.656;7.188;2023-02-01T14:36:38;11.07;;;3.90;;
9940;SDS011;5009;50.656;7.188;2023-02-01T14:39:20;10.27;;;3.70;;
9940;SDS011;5009;50.656;7.188;2023-02-01T14:41:57;7.70;;;3.07;;
9940;SDS011;5009;50.656;7.188;2023-02-01T14:44:27;9.87;;;3.40;;
9940;SDS011;5009;50.656;7.188;2023-02-01T14:49:34;8.83;;;3.30;;
9940;SDS011;5009;50.656;7.188;2023-02-01T14:52:22;10.07;;;3.63;;
9940;SDS011;5009;50.656;7.188;2023-02-01T14:54:55;13.57;;;3.70;;
9940;SDS011;5009;50.656;7.188;2023-02-01T14:57:25;8.67;;;3.27;;
9940;SDS011;5009;50.656;7.188;2023-02-01T14:59:55;8.23;;;3.27;;
9940;SDS011;5009;50.656;7.188;2023-02-01T15:02:29;6.57;;;2.90;;
9940;SDS011;5009;50.656;7.188;2023-02-01T15:04:58;8.73;;;3.23;;
9940;SDS011;5009;50.656;7.188;2023-02-01T15:07:24;10.20;;;3.90;;
9940;SDS011;5009;50.656;7.188;2023-02-01T15:09:52;10.77;;;3.77;;
9940;SDS011;5009;50.656;7.188;2023-02-01T15:12:27;7.77;;;3.50;;
9940;SDS011;5009;50.656;7.188;2023-02-01T15:15:13;7.30;;;3.43;;
9940;SDS011;5009;50.656;7.188;2023-02-01T15:17:50;9.50;;;3.27;;
9940;SDS011;5009;50.656;7.188;2023-02-01T15:20:19;12.37;;;3.67;;
9940;SDS011;5009;50.656;7.188;2023-02-01T15:22:57;10.87;;;3.70;;
9940;SDS011;5009;50.656;7.188;2023-02-01T15:25:29;8.83;;;3.60;;
9940;SDS011;5009;50.656;7.188;2023-02-01T15:27:57;7.63;;;3.10;;
9940;SDS011;5009;50.656;7.188;2023-02-01T15:32:51;6.80;;;2.80;;
9940;SDS011;5009;50.656;7.188;2023-02-01T15:35:31;7.20;;;3.00;;
9940;SDS011;5009;50.656;7.188;2023-02-01T15:43:25;10.63;;;3.27;;
9940;SDS011;5009;50.656;7.188;2023-02-01T15:45:52;8.43;;;3.03;;
9940;SDS011;5009;50.656;7.188;2023-02-01T15:48:22;7.60;;;2.73;;
9940;SDS011;5009;50.656;7.188;2023-02-01T15:50:51;11.00;;;3.40;;
9940;SDS011;5009;50.656;7.188;2023-02-01T15:53:21;9.27;;;3.10;;
9940;SDS011;5009;50.656;7.188;2023-02-01T15:55:54;8.40;;;3.63;;
9940;SDS011;5009;50.656;7.188;2023-02-01T15:58:22;9.60;;;3.40;;
9940;SDS011;5009;50.656;7.188;2023-02-01T16:00:53;8.47;;;3.17;;
9940;SDS011;5009;50.656;7.188;2023-02-01T16:05:53;9.53;;;3.30;;
9940;SDS011;5009;50.656;7.188;2023-02-01T16:08:24;7.27;;;3.47;;
9940;SDS011;5009;50.656;7.188;2023-02-01T16:10:53;10.70;;;3.87;;
9940;SDS011;5009;50.656;7.188;2023-02-01T16:13:25;10.00;;;3.33;;
9940;SDS011;5009;50.656;7.188;2023-02-01T16:15:51;5.93;;;2.60;;
9940;SDS011;5009;50.656;7.188;2023-02-01T16:18:16;13.80;;;3.13;;
9940;SDS011;5009;50.656;7.188;2023-02-01T16:20:42;10.03;;;3.10;;
9940;SDS011;5009;50.656;7.188;2023-02-01T16:23:09;9.80;;;3.43;;
9940;SDS011;5009;50.656;7.188;2023-02-01T16:25:36;9.70;;;4.10;;
9940;SDS011;5009;50.656;7.188;2023-02-01T16:28:02;10.77;;;4.00;;
9940;SDS011;5009;50.656;7.188;2023-02-01T16:30:29;10.37;;;3.57;;
9940;SDS011;5009;50.656;7.188;2023-02-01T16:32:56;14.03;;;4.03;;
9940;SDS011;5009;50.656;7.188;2023-02-01T16:35:24;11.50;;;3.73;;
9940;SDS011;5009;50.656;7.188;2023-02-01T16:37:51;6.87;;;3.30;;
9940;SDS011;5009;50.656;7.188;2023-02-01T16:40:17;11.77;;;3.63;;
9940;SDS011;5009;50.656;7.188;2023-02-01T16:42:45;8.27;;;3.60;;
9940;SDS011;5009;50.656;7.188;2023-02-01T16:45:12;14.17;;;4.57;;
9940;SDS011;5009;50.656;7.188;2023-02-01T16:47:38;11.00;;;3.93;;
9940;SDS011;5009;50.656;7.188;2023-02-01T16:50:17;9.57;;;3.83;;
9940;SDS011;5009;50.656;7.188;2023-02-01T16:52:45;12.90;;;3.83;;
9940;SDS011;5009;50.656;7.188;2023-02-01T16:55:15;9.37;;;3.53;;
9940;SDS011;5009;50.656;7.188;2023-02-01T16:57:43;8.70;;;3.63;;
9940;SDS011;5009;50.656;7.188;2023-02-01T17:00:09;7.33;;;3.40;;
9940;SDS011;5009;50.656;7.188;2023-02-01T17:02:36;11.47;;;3.43;;
9940;SDS011;5009;50.656;7.188;2023-02-01T17:05:03;10.83;;;3.87;;
9940;SDS011;5009;50.656;7.188;2023-02-01T17:07:29;8.90;;;3.43;;
9940;SDS011;5009;50.656;7.188;2023-02-01T17:09:55;5.80;;;3.17;;
9940;SDS011;5009;50.656;7.188;2023-02-01T17:12:25;12.43;;;4.00;;
9940;SDS011;5009;50.656;7.188;2023-02-01T17:14:55;9.90;;;3.60;;
9940;SDS011;5009;50.656;7.188;2023-02-01T17:17:22;12.63;;;4.17;;
9940;SDS011;5009;50.656;7.188;2023-02-01T17:19:49;8.90;;;3.83;;
9940;SDS011;5009;50.656;7.188;2023-02-01T17:22:18;10.47;;;4.83;;
9940;SDS011;5009;50.656;7.188;2023-02-01T17:24:44;12.57;;;6.20;;
9940;SDS011;5009;50.656;7.188;2023-02-01T17:27:10;9.03;;;4.03;;
9940;SDS011;5009;50.656;7.188;2023-02-01T17:29:35;11.37;;;4.17;;
9940;SDS011;5009;50.656;7.188;2023-02-01T17:32:01;9.67;;;3.97;;
9940;SDS011;5009;50.656;7.188;2023-02-01T17:34:27;11.20;;;3.73;;
9940;SDS011;5009;50.656;7.188;2023-02-01T17:36:53;12.53;;;5.00;;
9940;SDS011;5009;50.656;7.188;2023-02-01T17:39:18;9.90;;;4.23;;
9940;SDS011;5009;50.656;7.188;2023-02-01T17:42:03;14.97;;;4.03;;
9940;SDS011;5009;50.656;7.188;2023-02-01T17:44:29;9.83;;;4.03;;
9940;SDS011;5009;50.656;7.188;2023-02-01T17:46:56;7.57;;;3.47;;
9940;SDS011;5009;50.656;7.188;2023-02-01T17:49:23;7.63;;;3.70;;
9940;SDS011;5009;50.656;7.188;2023-02-01T17:51:49;10.57;;;3.93;;
9940;SDS011;5009;50.656;7.188;2023-02-01T17:54:15;9.00;;;3.33;;
9940;SDS011;5009;50.656;7.188;2023-02-01T17:56:43;11.50;;;3.90;;
9940;SDS011;5009;50.656;7.188;2023-02-01T17:59:09;10.97;;;3.97;;
9940;SDS011;5009;50.656;7.188;2023-02-01T18:01:35;8.33;;;4.10;;
9940;SDS011;5009;50.656;7.188;2023-02-01T18:04:01;11.87;;;5.87;;
9940;SDS011;5009;50.656;7.188;2023-02-01T18:06:27;14.80;;;6.23;;
9940;SDS011;5009;50.656;7.188;2023-02-01T18:08:58;11.23;;;6.37;;
9940;SDS011;5009;50.656;7.188;2023-02-01T18:11:23;9.53;;;5.30;;
9940;SDS011;5009;50.656;7.188;2023-02-01T18:13:50;13.53;;;4.57;;
9940;SDS011;5009;50.656;7.188;2023-02-01T18:18:46;7.17;;;4.37;;
9940;SDS011;5009;50.656;7.188;2023-02-01T18:21:12;10.50;;;4.30;;
9940;SDS011;5009;50.656;7.188;2023-02-01T18:23:39;8.70;;;3.60;;
9940;SDS011;5009;50.656;7.188;2023-02-01T18:26:05;10.57;;;4.20;;
9940;SDS011;5009;50.656;7.188;2023-02-01T18:28:30;13.27;;;4.57;;
9940;SDS011;5009;50.656;7.188;2023-02-01T18:30:56;11.97;;;4.50;;
9940;SDS011;5009;50.656;7.188;2023-02-01T18:33:22;10.50;;;4.93;;
9940;SDS011;5009;50.656;7.188;2023-02-01T18:35:48;12.20;;;4.30;;
9940;SDS011;5009;50.656;7.188;2023-02-01T18:38:13;9.30;;;4.77;;
9940;SDS011;5009;50.656;7.188;2023-02-01T18:40:42;9.13;;;4.47;;
9940;SDS011;5009;50.656;7.188;2023-02-01T18:43:13;10.00;;;4.30;;
9940;SDS011;5009;50.656;7.188;2023-02-01T18:45:40;8.80;;;4.47;;
9940;SDS011;5009;50.656;7.188;2023-02-01T18:48:09;6.07;;;3.90;;
9940;SDS011;5009;50.656;7.188;2023-02-01T18:50:37;9.03;;;4.60;;
9940;SDS011;5009;50.656;7.188;2023-02-01T18:53:05;10.27;;;4.83;;
9940;SDS011;5009;50.656;7.188;2023-02-01T18:55:35;10.63;;;4.97;;
9940;SDS011;5009;50.656;7.188;2023-02-01T18:58:02;8.03;;;4.90;;
9940;SDS011;5009;50.656;7.188;2023-02-01T19:00:30;12.10;;;4.87;;
9940;SDS011;5009;50.656;7.188;2023-02-01T19:02:56;11.13;;;4.60;;
9940;SDS011;5009;50.656;7.188;2023-02-01T19:05:22;10.90;;;4.60;;
9940;SDS011;5009;50.656;7.188;2023-02-01T19:07:48;13.57;;;5.30;;
9940;SDS011;5009;50.656;7.188;2023-02-01T19:10:15;9.53;;;4.20;;
9940;SDS011;5009;50.656;7.188;2023-02-01T19:12:42;15.40;;;4.33;;
9940;SDS011;5009;50.656;7.188;2023-02-01T19:15:08;10.27;;;4.13;;
9940;SDS011;5009;50.656;7.188;2023-02-01T19:17:40;7.60;;;3.90;;
9940;SDS011;5009;50.656;7.188;2023-02-01T19:20:10;9.97;;;4.73;;
9940;SDS011;5009;50.656;7.188;2023-02-01T19:22:38;10.50;;;4.63;;
9940;SDS011;5009;50.656;7.188;2023-02-01T19:25:05;9.40;;;3.93;;
9940;SDS011;5009;50.656;7.188;2023-02-01T19:27:31;12.83;;;4.77;;
9940;SDS011;5009;50.656;7.188;2023-02-01T19:29:57;7.80;;;4.17;;
9940;SDS011;5009;50.656;7.188;2023-02-01T19:32:23;10.17;;;4.80;;
9940;SDS011;5009;50.656;7.188;2023-02-01T19:34:49;10.80;;;4.77;;
9940;SDS011;5009;50.656;7.188;2023-02-01T19:37:14;14.03;;;4.80;;
9940;SDS011;5009;50.656;7.188;2023-02-01T19:39:40;7.60;;;3.90;;
9940;SDS011;5009;50.656;7.188;2023-02-01T19:42:06;12.13;;;4.63;;
9940;SDS011;5009;50.656;7.188;2023-02-01T19:44:32;13.03;;;4.97;;
9940;SDS011;5009;50.656;7.188;2023-02-01T19:46:59;17.27;;;5.00;;
9940;SDS011;5009;50.656;7.188;2023-02-01T19:49:25;10.57;;;5.10;;
9940;SDS011;5009;50.656;7.188;2023-02-01T19:51:51;12.73;;;4.87;;
9940;SDS011;5009;50.656;7.188;2023-02-01T19:54:16;13.60;;;4.57;;
9940;SDS011;5009;50.656;7.188;2023-02-01T19:56:42;12.13;;;4.93;;
9940;SDS011;5009;50.656;7.188;2023-02-01T19:59:09;13.27;;;5.00;;
9940;SDS011;5009;50.656;7.188;2023-02-01T20:01:36;14.23;;;5.03;;
9940;SDS011;5009;50.656;7.188;2023-02-01T20:04:05;12.00;;;4.70;;
9940;SDS011;5009;50.656;7.188;2023-02-01T20:06:32;9.37;;;4.47;;
9940;SDS011;5009;50.656;7.188;2023-02-01T20:09:01;10.20;;;4.50;;
9940;SDS011;5009;50.656;7.188;2023-02-01T20:11:27;16.80;;;5.10;;
9940;SDS011;5009;50.656;7.188;2023-02-01T20:13:53;14.53;;;5.23;;
9940;SDS011;5009;50.656;7.188;2023-02-01T20:16:19;13.50;;;4.70;;
9940;SDS011;5009;50.656;7.188;2023-02-01T20:18:45;10.37;;;4.57;;
9940;SDS011;5009;50.656;7.188;2023-02-01T20:21:11;14.00;;;5.07;;
9940;SDS011;5009;50.656;7.188;2023-02-01T20:23:37;12.60;;;5.10;;
9940;SDS011;5009;50.656;7.188;2023-02-01T20:26:04;14.93;;;4.73;;
9940;SDS011;5009;50.656;7.188;2023-02-01T20:28:30;15.53;;;5.10;;
9940;SDS011;5009;50.656;7.188;2023-02-01T20:30:57;13.77;;;4.90;;
9940;SDS011;5009;50.656;7.188;2023-02-01T20:33:23;13.57;;;5.33;;
9940;SDS011;5009;50.656;7.188;2023-02-01T20:35:51;13.70;;;4.23;;
9940;SDS011;5009;50.656;7.188;2023-02-01T20:38:17;11.87;;;4.97;;
9940;SDS011;5009;50.656;7.188;2023-02-01T20:40:43;15.53;;;5.00;;
9940;SDS011;5009;50.656;7.188;2023-02-01T20:43:08;12.67;;;5.43;;
9940;SDS011;5009;50.656;7.188;2023-02-01T20:45:37;14.80;;;4.97;;
9940;SDS011;5009;50.656;7.188;2023-02-01T20:48:07;14.67;;;4.50;;
9940;SDS011;5009;50.656;7.188;2023-02-01T20:50:34;13.53;;;5.30;;
9940;SDS011;5009;50.656;7.188;2023-02-01T20:53:00;15.83;;;5.47;;
9940;SDS011;5009;50.656;7.188;2023-02-01T20:55:26;9.63;;;4.57;;
9940;SDS011;5009;50.656;7.188;2023-02-01T20:57:51;12.77;;;4.40;;
9940;SDS011;5009;50.656;7.188;2023-02-01T21:00:17;11.23;;;4.47;;
9940;SDS011;5009;50.656;7.188;2023-02-01T21:02:47;15.27;;;5.37;;
9940;SDS011;5009;50.656;7.188;2023-02-01T21:05:13;14.40;;;4.70;;
9940;SDS011;5009;50.656;7.188;2023-02-01T21:07:40;11.70;;;6.37;;
9940;SDS011;5009;50.656;7.188;2023-02-01T21:10:06;10.53;;;5.47;;
9940;SDS011;5009;50.656;7.188;2023-02-01T21:12:32;11.73;;;5.87;;
9940;SDS011;5009;50.656;7.188;2023-02-01T21:14:58;11.17;;;5.30;;
9940;SDS011;5009;50.656;7.188;2023-02-01T21:17:24;12.10;;;4.70;;
9940;SDS011;5009;50.656;7.188;2023-02-01T21:19:52;9.20;;;4.33;;
9940;SDS011;5009;50.656;7.188;2023-02-01T21:22:18;13.20;;;4.63;;
9940;SDS011;5009;50.656;7.188;2023-02-01T21:24:44;13.40;;;4.10;;
9940;SDS011;5009;50.656;7.188;2023-02-01T21:27:09;12.07;;;4.67;;
9940;SDS011;5009;50.656;7.188;2023-02-01T21:29:35;10.60;;;4.37;;
9940;SDS011;5009;50.656;7.188;2023-02-01T21:32:01;10.87;;;4.87;;
9940;SDS011;5009;50.656;7.188;2023-02-01T21:34:27;10.83;;;5.20;;
9940;SDS011;5009;50.656;7.188;2023-02-01T21:36:53;11.50;;;4.93;;
9940;SDS011;5009;50.656;7.188;2023-02-01T21:39:18;11.33;;;4.53;;
9940;SDS011;5009;50.656;7.188;2023-02-01T21:41:44;10.30;;;4.80;;
9940;SDS011;5009;50.656;7.188;2023-02-01T21:44:29;17.03;;;5.33;;
9940;SDS011;5009;50.656;7.188;2023-02-01T21:46:54;12.53;;;5.53;;
9940;SDS011;5009;50.656;7.188;2023-02-01T21:49:20;13.63;;;4.90;;
9940;SDS011;5009;50.656;7.188;2023-02-01T21:51:48;10.47;;;4.77;;
9940;SDS011;5009;50.656;7.188;2023-02-01T21:54:14;10.93;;;4.77;;
9940;SDS011;5009;50.656;7.188;2023-02-01T21:56:41;15.03;;;5.63;;
9940;SDS011;5009;50.656;7.188;2023-02-01T21:59:07;13.07;;;4.53;;
